Time;durP1;ratioP1;P1;durP2;ratioP2;P2;SDS_P1;SDS_P2;PMS_P1;PMS_P2;Temp;Humidity;BMP_temperature;BMP_pressure;BME280_temperature;BME280_humidity;BME280_pressure;Samples;Min_cycle;Max_cycle;Signal;HPM_P1;HPM_P2
2022/06/28 00:00:23;;;;;;;3.38;2.85;;;;;;;23.84;64.47;97776.59;6204133;28;20224;-85
2022/06/28 00:03:26;;;;;;;3.47;3.08;;;;;;;23.81;63.97;97777.81;6203336;28;20258;-85
2022/06/28 00:06:28;;;;;;;4.65;2.72;;;;;;;23.78;63.71;97791.69;6202765;28;20718;-85
2022/06/28 00:09:30;;;;;;;7.25;3.03;;;;;;;23.71;63.72;97790.03;6203143;28;20224;-86
2022/06/28 00:12:33;;;;;;;7.00;3.63;;;;;;;23.68;62.56;97806.59;6186818;28;20259;-86
2022/06/28 00:18:55;;;;;;;5.18;2.97;;;;;;;23.45;63.17;97834.69;6199420;28;20791;-85
2022/06/28 00:21:58;;;;;;;3.75;3.22;;;;;;;23.35;63.88;97830.72;6174161;28;20239;-85
2022/06/28 00:25:00;;;;;;;5.50;3.10;;;;;;;23.31;64.20;97835.66;6189728;28;20236;-85
2022/06/28 00:28:02;;;;;;;3.47;2.92;;;;;;;23.20;64.71;97855.06;6209012;28;20244;-86
2022/06/28 00:31:04;;;;;;;4.68;3.38;;;;;;;23.08;65.23;97854.78;6192058;28;20336;-85
2022/06/28 00:34:08;;;;;;;3.40;3.10;;;;;;;22.97;66.00;97858.03;6192299;28;20235;-85
2022/06/28 01:04:37;;;;;;;4.67;2.83;;;;;;;21.63;70.54;97904.47;6202811;28;20640;-85
2022/06/28 01:07:40;;;;;;;5.30;2.67;;;;;;;21.57;70.49;97874.81;6186292;28;20283;-86
2022/06/28 01:10:42;;;;;;;4.43;2.60;;;;;;;21.48;70.97;97895.56;6169894;28;20225;-86
2022/06/28 01:13:52;;;;;;;4.83;2.47;;;;;;;21.37;72.15;97882.63;6186713;28;20314;-86
2022/06/28 01:16:55;;;;;;;5.10;2.60;;;;;;;21.23;73.56;97903.09;6206575;28;20229;-85
2022/06/28 01:20:09;;;;;;;3.20;2.57;;;;;;;21.11;73.94;97872.31;6196566;28;20236;-88
2022/06/28 01:23:35;;;;;;;2.77;2.23;;;;;;;21.04;74.71;97886.69;6197105;28;20232;-87
2022/06/28 01:26:57;;;;;;;4.03;3.20;;;;;;;20.90;75.05;97909.78;6192674;28;20262;-87
2022/06/28 01:30:02;;;;;;;3.10;2.80;;;;;;;20.81;74.87;97917.06;6191874;28;20224;-87
2022/06/28 01:33:20;;;;;;;3.03;2.33;;;;;;;20.65;75.52;97933.31;6182619;28;20751;-87
2022/06/28 01:36:24;;;;;;;2.90;2.60;;;;;;;20.64;74.49;97931.66;6204048;28;20227;-88
2022/06/28 01:39:26;;;;;;;3.17;2.50;;;;;;;20.68;74.71;97942.84;6182965;28;20652;-87
2022/06/28 01:42:29;;;;;;;2.40;2.20;;;;;;;20.65;74.89;97932.50;6182240;28;20236;-87
2022/06/28 01:45:31;;;;;;;4.50;2.00;;;;;;;20.65;74.57;97925.28;6194648;28;20703;-87
2022/06/28 01:48:33;;;;;;;2.83;2.10;;;;;;;20.66;74.49;97931.47;6206473;28;20659;-87
2022/06/28 01:51:37;;;;;;;2.10;1.90;;;;;;;20.63;74.13;97938.03;6202200;28;20225;-87
2022/06/28 01:54:41;;;;;;;1.47;1.37;;;;;;;20.62;73.69;97926.47;6184862;28;20233;-87
2022/06/28 01:57:44;;;;;;;1.60;1.50;;;;;;;20.61;73.94;97919.44;6188911;28;20225;-87
2022/06/28 02:00:46;;;;;;;3.57;1.70;;;;;;;20.63;73.67;97932.66;6190189;28;20239;-85
2022/06/28 02:03:49;;;;;;;1.50;1.40;;;;;;;20.67;73.60;97936.63;6205895;28;20228;-87
2022/06/28 02:07:21;;;;;;;2.43;1.83;;;;;;;20.70;73.11;97912.16;6181489;28;20239;-88
2022/06/28 02:10:23;;;;;;;2.50;1.57;;;;;;;20.73;73.44;97943.16;6206686;28;20236;-88
2022/06/28 02:13:26;;;;;;;2.47;1.40;;;;;;;20.70;73.27;97963.09;6190307;28;20735;-87
2022/06/28 02:16:28;;;;;;;1.30;1.20;;;;;;;20.71;73.37;97963.94;6180124;28;20727;-87
2022/06/28 02:19:30;;;;;;;1.93;1.50;;;;;;;20.70;73.80;97978.38;6183628;28;20224;-87
2022/06/28 02:22:32;;;;;;;4.33;1.43;;;;;;;20.69;74.12;97980.22;6190231;28;20240;-85
2022/06/28 02:25:34;;;;;;;3.37;1.37;;;;;;;20.58;74.28;97994.03;6188873;28;20228;-87
2022/06/28 02:28:37;;;;;;;1.40;1.30;;;;;;;20.59;74.36;97961.69;6204886;28;20716;-85
2022/06/28 02:31:39;;;;;;;1.37;1.23;;;;;;;20.61;74.32;97937.38;6205946;28;20235;-87
2022/06/28 02:41:24;;;;;;;1.97;1.40;;;;;;;20.62;73.98;97883.56;6205649;28;20372;-86
2022/06/28 02:44:26;;;;;;;4.50;1.30;;;;;;;20.68;73.51;97860.53;6189431;28;20232;-87
2022/06/28 02:47:28;;;;;;;2.93;1.43;;;;;;;20.55;74.68;97882.63;6188087;28;20698;-87
2022/06/28 02:50:31;;;;;;;3.40;1.60;;;;;;;20.43;75.64;97827.75;6205397;28;20479;-87
2022/06/28 02:53:33;;;;;;;2.10;1.60;;;;;;;20.14;77.63;97827.63;6205255;28;20223;-87
2022/06/28 02:56:37;;;;;;;3.37;1.50;;;;;;;20.06;78.64;97782.16;6204594;28;20233;-87
2022/06/28 02:59:39;;;;;;;2.90;1.43;;;;;;;19.94;79.01;97738.88;6188643;28;20443;-87
2022/06/28 03:02:43;;;;;;;2.70;1.73;;;;;;;19.70;80.08;97723.84;6164528;28;20626;-87
2022/06/28 03:05:48;;;;;;;2.47;2.27;;;;;;;19.56;81.44;97697.84;6184674;28;20232;-87
2022/06/28 03:08:50;;;;;;;2.70;1.63;;;;;;;19.35;82.58;97681.59;6188260;28;20244;-88
2022/06/28 03:11:52;;;;;;;2.47;2.10;;;;;;;19.25;83.84;97654.22;6189066;28;20370;-88
2022/06/28 03:14:54;;;;;;;3.60;2.17;;;;;;;19.15;83.80;97657.97;6188246;28;20236;-88
2022/06/28 03:17:56;;;;;;;2.53;2.33;;;;;;;19.14;83.91;97676.88;6204018;28;20243;-87
2022/06/28 03:20:58;;;;;;;2.80;2.53;;;;;;;19.17;84.43;97711.28;6188460;28;20301;-87
2022/06/28 03:24:00;;;;;;;3.37;2.50;;;;;;;19.29;83.98;97762.56;6163681;28;20314;-88
2022/06/28 03:27:03;;;;;;;2.27;2.03;;;;;;;19.42;83.50;97794.94;6163295;28;20264;-87
2022/06/28 03:30:06;;;;;;;3.73;2.43;;;;;;;19.51;82.80;97793.91;6195943;28;20217;-88
2022/06/28 03:33:09;;;;;;;2.47;2.27;;;;;;;19.60;82.28;97782.16;6164233;28;20217;-88
2022/06/28 03:36:12;;;;;;;2.70;1.90;;;;;;;19.69;81.74;97785.59;6196264;28;20255;-88
2022/06/28 03:39:17;;;;;;;2.00;1.83;;;;;;;19.74;81.38;97818.06;6180136;28;20213;-87
2022/06/28 03:42:23;;;;;;;2.47;2.27;;;;;;;19.80;81.14;97810.13;6195396;28;20233;-87
2022/06/28 03:45:27;;;;;;;2.10;1.90;;;;;;;19.89;80.60;97816.25;6179068;28;20229;-87
2022/06/28 03:48:50;;;;;;;2.00;1.90;;;;;;;19.92;80.44;97831.97;6180871;28;20234;-87
2022/06/28 03:52:19;;;;;;;2.57;1.83;;;;;;;19.94;80.35;97838.00;6179647;28;20776;-88
2022/06/28 03:55:47;;;;;;;2.17;1.80;;;;;;;19.96;80.15;97844.03;6178206;28;20237;-87
2022/06/28 03:58:49;;;;;;;1.47;1.37;;;;;;;20.00;79.45;97864.06;6194986;28;20228;-88
2022/06/28 04:01:51;;;;;;;2.90;1.40;;;;;;;20.01;79.41;97870.25;6178957;28;20327;-88
2022/06/28 04:04:54;;;;;;;1.50;1.40;;;;;;;20.01;78.95;97868.41;6179196;28;20599;-87
2022/06/28 04:07:57;;;;;;;1.47;1.37;;;;;;;20.01;78.73;97862.22;6179638;28;20744;-88
2022/06/28 04:11:18;;;;;;;1.30;1.20;;;;;;;19.98;77.44;97874.13;6180271;28;20639;-87
2022/06/28 04:14:22;;;;;;;1.60;1.50;;;;;;;19.95;77.90;97871.81;6196120;28;20237;-87
2022/06/28 04:17:24;;;;;;;1.43;1.30;;;;;;;20.02;77.76;97872.78;6179101;28;20705;-87
2022/06/28 04:20:46;;;;;;;1.53;1.43;;;;;;;20.09;77.17;97883.59;6178274;28;20241;-87
2022/06/28 04:23:48;;;;;;;1.10;0.97;;;;;;;20.07;77.02;97890.97;6166446;28;20241;-87
2022/06/28 04:26:50;;;;;;;2.17;1.20;;;;;;;20.10;76.81;97896.81;6161357;28;20712;-87
2022/06/28 04:29:59;;;;;;;1.10;1.00;;;;;;;20.13;76.22;97912.56;6179859;28;20712;-88
2022/06/28 04:33:19;;;;;;;1.70;1.27;;;;;;;20.10;76.10;97914.75;6183679;28;20229;-87
2022/06/28 04:36:22;;;;;;;1.87;1.27;;;;;;;20.11;76.12;97921.78;6179008;28;20244;-88
2022/06/28 04:39:24;;;;;;;1.90;1.20;;;;;;;20.02;75.45;97917.47;6170288;28;20236;-88
2022/06/28 04:42:40;;;;;;;2.03;1.07;;;;;;;20.01;76.01;97924.69;6179795;28;20345;-87
2022/06/28 04:45:45;;;;;;;1.33;1.10;;;;;;;20.04;76.02;97934.22;6194464;28;20306;-87
2022/06/28 04:48:49;;;;;;;1.30;1.00;;;;;;;19.99;76.04;97939.25;6162800;28;20314;-87
2022/06/28 04:51:56;;;;;;;2.40;1.10;;;;;;;20.02;76.05;97930.88;6199289;28;20248;-87
2022/06/28 04:55:09;;;;;;;1.53;1.20;;;;;;;20.03;75.82;97941.44;6184400;28;20776;-87
2022/06/28 04:58:19;;;;;;;1.20;1.07;;;;;;;20.01;75.92;97951.47;6168757;28;20249;-87
2022/06/28 05:01:21;;;;;;;1.07;0.97;;;;;;;20.01;76.07;97945.28;6199315;28;20259;-87
2022/06/28 05:04:23;;;;;;;1.03;1.03;;;;;;;20.02;75.70;97936.25;6182788;28;20764;-87
2022/06/28 05:07:36;;;;;;;0.80;0.80;;;;;;;20.06;75.76;97945.59;6184562;28;20244;-87
2022/06/28 05:11:01;;;;;;;2.20;1.10;;;;;;;20.07;75.58;97947.25;6183515;28;20304;-88
2022/06/28 05:14:23;;;;;;;1.10;1.03;;;;;;;19.98;75.23;97951.00;6176423;28;20221;-87
2022/06/28 05:17:25;;;;;;;1.17;0.93;;;;;;;19.96;75.24;97961.91;6182398;28;20229;-87
2022/06/28 05:20:28;;;;;;;3.27;1.13;;;;;;;19.97;75.17;97965.38;6191198;28;20236;-88
2022/06/28 05:23:31;;;;;;;5.97;1.10;;;;;;;19.94;75.46;97958.56;6198280;28;20232;-87
2022/06/28 05:26:51;;;;;;;1.40;1.30;;;;;;;19.94;75.05;97966.59;6183550;28;20226;-87
2022/06/28 05:29:55;;;;;;;1.20;1.10;;;;;;;20.01;74.14;97970.25;6198919;28;20225;-87
2022/06/28 05:32:57;;;;;;;2.00;1.13;;;;;;;20.07;73.58;97953.44;6183712;28;20240;-88
2022/06/28 05:35:59;;;;;;;2.20;0.90;;;;;;;20.11;73.73;97961.97;6198216;28;20274;-87
2022/06/28 05:39:01;;;;;;;2.00;1.17;;;;;;;20.09;72.61;97958.63;6181151;28;20291;-87
2022/06/28 05:42:04;;;;;;;1.87;1.30;;;;;;;20.13;72.58;97966.16;6166670;28;20694;-87
2022/06/28 05:45:06;;;;;;;2.23;0.90;;;;;;;20.15;73.13;97977.53;6166737;28;20222;-87
2022/06/28 05:48:09;;;;;;;1.93;1.10;;;;;;;20.20;72.86;97974.31;6198353;28;20264;-87
2022/06/28 05:51:10;;;;;;;1.00;1.00;;;;;;;20.26;71.64;97976.31;6166706;28;20228;-88
2022/06/28 05:54:13;;;;;;;2.70;1.20;;;;;;;20.32;71.99;97985.47;6182341;28;20205;-87
2022/06/28 05:57:15;;;;;;;2.13;1.20;;;;;;;20.34;71.74;97978.94;6180763;28;20220;-87
2022/06/28 06:00:18;;;;;;;1.27;1.10;;;;;;;20.42;71.04;97976.22;6180843;28;20653;-88
2022/06/28 06:03:20;;;;;;;0.80;0.80;;;;;;;20.54;71.07;97982.84;6181352;28;20229;-87
2022/06/28 06:06:24;;;;;;;2.23;1.10;;;;;;;20.66;70.70;97998.53;6181662;28;20756;-87
2022/06/28 06:09:27;;;;;;;1.23;1.10;;;;;;;20.78;70.39;97997.06;6181895;28;20279;-87
2022/06/28 06:12:29;;;;;;;1.10;1.10;;;;;;;20.87;70.63;97999.50;6181984;28;20630;-87
2022/06/28 06:15:32;;;;;;;1.80;1.20;;;;;;;20.96;70.57;98008.34;6181560;28;20341;-87
2022/06/28 06:18:34;;;;;;;1.43;1.20;;;;;;;21.00;70.04;98028.44;6165606;28;20233;-87
2022/06/28 06:21:36;;;;;;;1.60;1.20;;;;;;;21.11;69.51;98029.84;6182117;28;20291;-87
2022/06/28 06:24:38;;;;;;;2.17;1.30;;;;;;;21.23;68.76;98041.88;6182409;28;20241;-87
2022/06/28 06:27:49;;;;;;;2.20;1.10;;;;;;;21.41;68.06;98044.22;6182527;28;20265;-87
2022/06/28 06:30:52;;;;;;;1.70;1.20;;;;;;;21.62;67.62;98050.53;6181836;28;20239;-87
2022/06/28 06:34:07;;;;;;;1.60;1.13;;;;;;;21.82;66.73;98050.00;6167416;28;20240;-87
2022/06/28 06:37:22;;;;;;;3.37;1.30;;;;;;;22.08;65.64;98051.22;6171022;28;20240;-88
2022/06/28 06:40:25;;;;;;;2.53;1.20;;;;;;;22.43;65.08;98054.16;6181060;28;20807;-87
2022/06/28 06:43:28;;;;;;;1.83;1.20;;;;;;;22.71;64.64;98065.00;6180789;28;20237;-87
2022/06/28 06:46:48;;;;;;;2.13;1.20;;;;;;;23.02;63.80;98062.88;6182623;28;20721;-88
2022/06/28 06:49:52;;;;;;;1.53;1.13;;;;;;;23.12;62.13;98066.09;6156796;28;20229;-87
2022/06/28 06:52:55;;;;;;;0.97;0.97;;;;;;;23.33;61.97;98070.63;6174866;28;20781;-87
2022/06/28 06:55:57;;;;;;;2.80;1.00;;;;;;;23.37;61.51;98074.59;6167045;28;20238;-88
2022/06/28 06:58:59;;;;;;;2.60;1.30;;;;;;;23.44;60.83;98070.09;6183494;28;20244;-88
2022/06/28 07:02:02;;;;;;;1.70;1.10;;;;;;;23.48;60.43;98071.38;6181046;28;20331;-88
2022/06/28 07:05:12;;;;;;;2.03;1.30;;;;;;;23.47;60.63;98076.94;6165857;28;20221;-88
2022/06/28 07:08:15;;;;;;;3.13;1.50;;;;;;;23.46;60.43;98075.28;6180799;28;20225;-88
2022/06/28 07:11:26;;;;;;;2.83;1.20;;;;;;;23.47;59.50;98088.56;6181632;28;20721;-88
2022/06/28 07:14:28;;;;;;;1.57;1.13;;;;;;;23.52;59.04;98080.78;6180938;28;20650;-88
2022/06/28 07:17:35;;;;;;;2.23;1.53;;;;;;;23.90;58.15;98086.63;6165100;28;20783;-88
2022/06/28 07:20:37;;;;;;;2.57;0.97;;;;;;;24.40;56.82;98071.16;6194272;28;20261;-88
2022/06/28 07:23:41;;;;;;;2.63;1.27;;;;;;;24.36;56.62;98082.53;6180273;28;20239;-88
2022/06/28 07:26:44;;;;;;;2.40;0.93;;;;;;;24.81;56.07;98081.06;6195911;28;20224;-88
2022/06/28 07:29:46;;;;;;;1.92;1.30;;;;;;;25.34;54.33;98087.44;6160994;28;20226;-88
2022/06/28 07:32:50;;;;;;;1.98;1.10;;;;;;;25.57;53.84;98084.31;6183064;28;20713;-88
2022/06/28 07:35:52;;;;;;;2.67;1.20;;;;;;;25.81;53.25;98080.16;6163649;28;20225;-88
2022/06/28 07:38:55;;;;;;;1.92;1.10;;;;;;;25.85;53.06;98087.66;6163477;28;20256;-88
2022/06/28 07:41:57;;;;;;;2.20;1.42;;;;;;;25.98;53.20;98087.63;6181465;28;20236;-88
2022/06/28 07:45:39;;;;;;;3.13;1.48;;;;;;;25.77;52.51;98084.31;6130125;28;20234;-88
2022/06/28 07:48:47;;;;;;;4.78;1.27;;;;;;;25.78;52.18;98088.69;6180575;28;20225;-89
2022/06/28 07:55:11;;;;;;;2.88;1.58;;;;;;;26.08;51.24;98084.47;6190090;28;20329;-91
2022/06/28 07:58:25;;;;;;;3.35;1.40;;;;;;;26.47;50.84;98086.25;6194016;28;20225;-91
2022/06/28 08:01:27;;;;;;;2.60;1.25;;;;;;;26.67;50.05;98078.88;6196136;28;20392;-92
2022/06/28 08:04:56;;;;;;;2.10;1.13;;;;;;;26.72;49.91;98084.50;6101034;28;20237;-93
2022/06/28 08:08:00;;;;;;;2.42;1.27;;;;;;;26.80;49.39;98086.13;6097285;29;20227;-91
2022/06/28 08:11:05;;;;;;;2.85;1.20;;;;;;;26.69;48.74;98074.09;6099354;28;20229;-91
2022/06/28 08:14:11;;;;;;;2.45;1.23;;;;;;;26.73;49.35;98086.16;6114899;28;20234;-91
2022/06/28 08:17:15;;;;;;;1.30;1.10;;;;;;;26.95;48.91;98075.84;6115089;28;20633;-91
2022/06/28 08:20:17;;;;;;;1.13;0.90;;;;;;;27.14;48.60;98064.06;6101786;29;20234;-91
2022/06/28 08:23:20;;;;;;;2.17;1.20;;;;;;;27.39;48.15;98076.78;6105860;29;20615;-91
2022/06/28 08:26:22;;;;;;;2.08;1.15;;;;;;;27.48;48.56;98065.47;6086329;29;20608;-91
2022/06/28 08:29:24;;;;;;;2.70;1.40;;;;;;;27.37;48.18;98066.16;6147861;28;20229;-90
2022/06/28 08:32:26;;;;;;;2.15;1.20;;;;;;;27.54;47.66;98061.03;6154047;28;20263;-91
2022/06/28 08:35:28;;;;;;;1.30;1.00;;;;;;;27.68;47.78;98053.63;6166123;28;20757;-91
2022/06/28 08:38:31;;;;;;;2.45;1.10;;;;;;;27.83;47.38;98054.97;6178997;28;20311;-90
2022/06/28 08:41:34;;;;;;;2.35;1.10;;;;;;;27.82;47.95;98053.31;6179774;28;20229;-90
2022/06/28 08:44:36;;;;;;;2.63;1.00;;;;;;;28.23;47.43;98055.41;6162560;28;20233;-91
2022/06/28 08:47:39;;;;;;;1.73;1.10;;;;;;;28.71;46.53;98054.59;6179382;28;20583;-91
2022/06/28 08:50:46;;;;;;;1.75;1.08;;;;;;;29.31;45.10;98070.88;6163270;28;20225;-91
2022/06/28 08:53:48;;;;;;;2.63;1.30;;;;;;;29.30;44.29;98056.44;6155837;28;20236;-92
2022/06/28 08:56:51;;;;;;;4.70;1.40;;;;;;;29.22;44.11;98050.53;6170416;28;20242;-91
2022/06/28 08:59:53;;;;;;;3.00;1.30;;;;;;;29.15;44.60;98061.47;6170960;28;20346;-91
2022/06/28 09:02:57;;;;;;;1.45;1.35;;;;;;;28.83;45.35;98054.66;6171005;28;20336;-91
2022/06/28 09:05:59;;;;;;;2.67;1.10;;;;;;;29.48;44.51;98047.41;6176004;28;20237;-91
2022/06/28 09:09:01;;;;;;;2.15;1.20;;;;;;;30.08;43.90;98052.63;6178788;28;20236;-92
2022/06/28 09:12:04;;;;;;;2.15;1.20;;;;;;;30.26;42.71;98046.22;6163540;28;20252;-90
2022/06/28 09:15:08;;;;;;;1.33;1.20;;;;;;;29.90;43.11;98055.47;6179367;28;20292;-91
2022/06/28 09:18:10;;;;;;;2.72;1.40;;;;;;;29.84;44.11;98051.81;6162156;28;20221;-92
2022/06/28 09:21:16;;;;;;;1.13;1.02;;;;;;;30.13;43.62;98043.75;6156345;28;20213;-91
2022/06/28 09:24:25;;;;;;;1.80;1.38;;;;;;;30.42;42.54;98053.66;6194724;28;20236;-91
2022/06/28 09:27:30;;;;;;;1.83;1.27;;;;;;;30.89;41.53;98056.22;6201859;28;20708;-91
2022/06/28 09:30:32;;;;;;;1.75;1.23;;;;;;;31.29;40.09;98048.81;6186710;28;20705;-91
2022/06/28 09:33:34;;;;;;;2.00;1.35;;;;;;;31.56;40.04;98051.69;6203213;28;20235;-89
2022/06/28 09:36:54;;;;;;;2.38;1.33;;;;;;;30.79;40.19;98049.50;6204497;28;20232;-88
2022/06/28 09:39:56;;;;;;;2.17;1.38;;;;;;;31.08;41.59;98052.25;6190778;28;20322;-90
2022/06/28 09:43:13;;;;;;;2.13;1.40;;;;;;;30.99;39.73;98049.06;6189701;28;20643;-91
2022/06/28 09:46:16;;;;;;;1.23;1.00;;;;;;;31.52;40.79;98043.22;6173998;28;20681;-88
2022/06/28 09:49:19;;;;;;;1.40;1.30;;;;;;;32.24;39.96;98045.94;6206036;28;20704;-88
2022/06/28 09:52:26;;;;;;;2.40;1.50;;;;;;;32.10;39.56;98065.66;6209364;28;20232;-89
2022/06/28 09:55:31;;;;;;;3.58;1.40;;;;;;;32.26;38.33;98060.19;6206971;28;20228;-88
2022/06/28 09:58:33;;;;;;;2.55;1.48;;;;;;;32.29;38.68;98052.56;6204739;28;20233;-88
2022/06/28 10:01:54;;;;;;;1.48;1.38;;;;;;;31.80;39.07;98045.03;6181931;28;20224;-88
2022/06/28 10:05:00;;;;;;;3.33;1.52;;;;;;;31.30;39.41;98039.56;6179124;28;20224;-88
2022/06/28 10:08:03;;;;;;;1.95;1.60;;;;;;;31.60;39.25;98038.41;6189456;28;20238;-88
2022/06/28 10:11:06;;;;;;;2.40;1.42;;;;;;;31.60;39.16;98035.66;6190728;28;20257;-88
2022/06/28 10:17:55;;;;;;;1.55;1.30;;;;;;;32.46;38.33;98029.56;6188943;28;20259;-89
2022/06/28 10:20:57;;;;;;;1.60;1.13;;;;;;;32.88;37.64;98029.78;6178636;28;20324;-88
2022/06/28 10:23:59;;;;;;;1.25;1.13;;;;;;;32.68;37.04;98031.44;6206384;28;20319;-87
2022/06/28 10:27:12;;;;;;;1.75;1.30;;;;;;;32.71;37.29;98039.19;6164238;28;20235;-87
2022/06/28 10:30:14;;;;;;;1.30;1.20;;;;;;;32.86;36.84;98022.91;6182459;28;20678;-89
2022/06/28 10:33:16;;;;;;;1.88;1.30;;;;;;;32.56;37.15;98020.66;6199704;28;20235;-88
2022/06/28 10:36:21;;;;;;;1.95;1.38;;;;;;;33.06;36.89;98017.66;6205084;28;20271;-88
2022/06/28 10:39:32;;;;;;;1.98;1.23;;;;;;;33.32;36.81;98011.38;6192254;28;20228;-88
2022/06/28 10:42:51;;;;;;;2.13;1.20;;;;;;;33.55;35.75;98006.59;6205035;28;20707;-88
2022/06/28 10:46:02;;;;;;;1.73;1.40;;;;;;;32.73;36.74;98002.31;6205075;28;20607;-88
2022/06/28 10:49:07;;;;;;;2.55;1.20;;;;;;;32.86;37.80;97990.94;6205323;28;20232;-90
2022/06/28 10:52:15;;;;;;;1.33;1.23;;;;;;;33.53;36.95;97998.66;6188905;28;20236;-87
2022/06/28 10:55:19;;;;;;;5.15;1.58;;;;;;;34.12;35.45;97995.75;6187854;28;20232;-88
2022/06/28 10:58:21;;;;;;;2.95;1.45;;;;;;;34.21;35.58;97996.06;6188731;28;20240;-88
2022/06/28 11:01:51;;;;;;;2.42;1.45;;;;;;;34.17;35.15;97992.22;6204818;28;20262;-87
2022/06/28 11:05:08;;;;;;;1.60;1.48;;;;;;;34.05;35.94;97987.75;6204398;28;20359;-87
2022/06/28 11:08:11;;;;;;;2.15;1.23;;;;;;;34.29;35.21;97982.72;6187650;28;20720;-87
2022/06/28 11:11:14;;;;;;;1.50;1.38;;;;;;;34.68;35.32;97996.81;6181318;28;20336;-87
2022/06/28 11:14:30;;;;;;;2.95;1.27;;;;;;;34.39;35.74;97987.41;6197786;28;20439;-89
2022/06/28 11:17:43;;;;;;;3.15;1.65;;;;;;;33.60;35.81;97984.75;6188060;28;20700;-88
2022/06/28 11:20:45;;;;;;;1.95;1.52;;;;;;;33.17;36.03;97980.28;6192594;28;20224;-88
2022/06/28 11:23:54;;;;;;;3.45;1.50;;;;;;;32.87;36.07;97973.44;6188961;28;20279;-87
2022/06/28 11:27:21;;;;;;;1.58;1.40;;;;;;;32.98;36.79;97967.00;6203034;28;20234;-89
2022/06/28 11:30:27;;;;;;;1.70;1.40;;;;;;;32.90;37.68;97964.72;6203488;28;20328;-87
2022/06/28 11:33:32;;;;;;;1.60;1.45;;;;;;;32.34;38.44;97966.03;6187490;28;20727;-87
2022/06/28 11:36:35;;;;;;;1.60;1.50;;;;;;;32.67;38.12;97958.72;6186997;28;20755;-87
2022/06/28 11:39:40;;;;;;;3.13;1.30;;;;;;;33.07;36.78;97964.59;6204291;28;20692;-88
2022/06/28 11:42:46;;;;;;;1.90;1.48;;;;;;;32.59;38.33;97968.22;6188141;28;20229;-88
2022/06/28 11:45:50;;;;;;;3.08;1.50;;;;;;;32.56;37.43;97960.50;6168798;28;20715;-87
2022/06/28 11:48:52;;;;;;;2.88;1.80;;;;;;;32.20;38.44;97951.94;6183599;28;20229;-89
2022/06/28 11:51:55;;;;;;;1.80;1.70;;;;;;;33.14;36.93;97953.47;6203823;28;20247;-89
2022/06/28 11:54:57;;;;;;;3.75;1.80;;;;;;;33.69;35.96;97950.31;6187526;28;20239;-90
2022/06/28 11:58:33;;;;;;;2.00;1.38;;;;;;;33.69;35.69;97951.13;6179488;28;20335;-89
2022/06/28 12:01:46;;;;;;;1.75;1.40;;;;;;;34.32;35.89;97951.22;6121844;28;20736;-90
2022/06/28 12:04:56;;;;;;;4.00;1.60;;;;;;;33.30;34.56;97944.31;6136994;28;20626;-89
2022/06/28 12:07:59;;;;;;;2.72;1.50;;;;;;;33.07;36.36;97961.03;6152788;28;20654;-89
2022/06/28 12:11:02;;;;;;;3.85;1.50;;;;;;;33.83;35.06;97954.25;6137256;28;20234;-89
2022/06/28 12:14:12;;;;;;;4.03;1.80;;;;;;;34.27;34.20;97952.00;6153471;28;20713;-89
2022/06/28 12:17:14;;;;;;;3.08;1.60;;;;;;;34.91;33.57;97943.41;6159685;28;20942;-89
2022/06/28 12:20:17;;;;;;;1.83;1.48;;;;;;;34.84;32.29;97944.78;6157753;28;20344;-88
2022/06/28 12:23:19;;;;;;;1.95;1.63;;;;;;;33.52;34.09;97942.28;6124229;28;20329;-88
2022/06/28 12:26:36;;;;;;;1.95;1.40;;;;;;;33.61;34.96;97937.13;6136210;28;20588;-90
2022/06/28 12:29:38;;;;;;;3.00;1.80;;;;;;;34.36;33.72;97935.84;6153790;28;20399;-89
2022/06/28 12:32:40;;;;;;;3.83;1.30;;;;;;;34.62;33.16;97937.56;6144910;28;20317;-88
2022/06/28 12:35:50;;;;;;;1.90;1.45;;;;;;;34.29;31.77;97927.06;6152871;28;20268;-90
2022/06/28 12:38:52;;;;;;;4.38;1.40;;;;;;;34.66;33.33;97921.38;6202891;28;20704;-89
2022/06/28 12:41:54;;;;;;;4.05;1.42;;;;;;;34.19;33.31;97918.78;6202907;28;20244;-89
2022/06/28 12:45:00;;;;;;;4.05;1.55;;;;;;;33.89;33.36;97916.75;6161739;28;20241;-89
2022/06/28 12:48:03;;;;;;;1.90;1.50;;;;;;;34.79;33.55;97913.50;6182891;28;20593;-88
2022/06/28 12:51:05;;;;;;;3.25;1.50;;;;;;;35.59;32.49;97916.47;6186975;28;20246;-89
2022/06/28 12:54:07;;;;;;;1.77;1.45;;;;;;;36.20;31.68;97908.88;6187476;28;20618;-89
2022/06/28 12:57:09;;;;;;;2.10;1.30;;;;;;;35.56;31.50;97897.78;6186586;28;20217;-88
2022/06/28 13:00:13;;;;;;;2.65;1.80;;;;;;;36.25;31.48;97880.53;6188705;28;20435;-89
2022/06/28 13:03:19;;;;;;;3.33;1.48;;;;;;;36.29;30.86;97870.63;6188047;28;20255;-89
2022/06/28 13:06:21;;;;;;;1.52;1.23;;;;;;;35.48;32.84;97871.72;6187281;28;20795;-89
2022/06/28 13:09:23;;;;;;;2.50;1.50;;;;;;;35.09;33.45;97871.50;6188102;28;20228;-88
2022/06/28 13:12:25;;;;;;;2.42;1.33;;;;;;;34.76;33.10;97867.41;6209418;28;20270;-87
2022/06/28 13:15:27;;;;;;;3.17;1.60;;;;;;;34.41;33.70;97870.91;6191904;28;20228;-88
2022/06/28 13:18:30;;;;;;;3.03;1.75;;;;;;;35.12;33.02;97867.41;6192162;28;20666;-88
2022/06/28 13:21:32;;;;;;;3.72;2.22;;;;;;;34.76;33.86;97864.66;6179163;28;20244;-88
2022/06/28 13:24:35;;;;;;;4.20;1.73;;;;;;;34.36;33.89;97850.88;6170086;28;20229;-88
2022/06/28 13:27:38;;;;;;;4.00;1.77;;;;;;;34.58;32.66;97853.38;6190889;28;20228;-87
2022/06/28 13:30:41;;;;;;;2.45;1.67;;;;;;;35.33;32.54;97857.22;6191255;28;20228;-87
2022/06/28 13:33:43;;;;;;;2.05;1.65;;;;;;;34.44;33.47;97855.81;6207529;28;20228;-89
2022/06/28 13:36:45;;;;;;;3.90;1.75;;;;;;;33.21;35.90;97853.66;6174509;28;20315;-88
2022/06/28 13:39:47;;;;;;;3.10;1.75;;;;;;;33.05;36.19;97851.06;6181912;28;20255;-88
2022/06/28 13:42:49;;;;;;;1.63;1.52;;;;;;;32.91;36.84;97843.31;6200374;28;20282;-88
2022/06/28 13:45:52;;;;;;;2.45;1.42;;;;;;;33.11;37.15;97836.34;6189477;28;20241;-88
2022/06/28 13:48:54;;;;;;;2.13;1.63;;;;;;;33.51;36.08;97838.50;6206235;28;20323;-88
2022/06/28 13:51:56;;;;;;;2.92;1.35;;;;;;;34.03;35.23;97828.34;6198894;28;20732;-88
2022/06/28 13:54:58;;;;;;;2.40;1.50;;;;;;;35.19;33.20;97825.94;6186796;28;20275;-87
2022/06/28 13:58:00;;;;;;;1.95;1.45;;;;;;;36.18;32.03;97816.78;6205533;28;20232;-88
2022/06/28 14:01:02;;;;;;;3.50;1.70;;;;;;;35.59;31.11;97823.09;6166443;28;20228;-87
2022/06/28 14:04:04;;;;;;;2.40;1.67;;;;;;;34.49;32.57;97822.94;6204879;28;20324;-88
2022/06/28 14:07:07;;;;;;;3.53;2.00;;;;;;;35.58;30.97;97815.97;6205445;28;20236;-88
2022/06/28 14:10:10;;;;;;;2.88;1.42;;;;;;;36.35;30.00;97817.22;6172086;28;20237;-88
2022/06/28 14:13:12;;;;;;;3.33;1.70;;;;;;;35.46;31.49;97816.28;6193996;28;20228;-88
2022/06/28 14:16:14;;;;;;;2.55;1.52;;;;;;;34.67;32.30;97814.16;6189346;28;20232;-87
2022/06/28 14:19:16;;;;;;;1.75;1.40;;;;;;;34.33;34.33;97821.31;6207586;28;20306;-87
2022/06/28 14:22:18;;;;;;;4.50;1.80;;;;;;;33.52;35.55;97810.88;6188624;28;20399;-88
2022/06/28 14:25:27;;;;;;;1.58;1.45;;;;;;;33.06;35.88;97820.72;6205198;28;20236;-88
2022/06/28 14:28:31;;;;;;;1.88;1.25;;;;;;;33.28;37.07;97815.13;6189261;28;20323;-88
2022/06/28 14:31:33;;;;;;;1.30;1.20;;;;;;;33.61;37.33;97814.75;6197395;28;20233;-88
2022/06/28 14:34:51;;;;;;;2.60;1.17;;;;;;;33.53;37.63;97811.72;6177061;28;20252;-89
2022/06/28 14:37:52;;;;;;;3.42;1.60;;;;;;;32.97;38.78;97812.19;6180044;28;20700;-88
2022/06/28 14:40:54;;;;;;;1.33;1.20;;;;;;;33.02;39.29;97805.09;6195097;28;20270;-88
2022/06/28 14:43:57;;;;;;;2.28;1.38;;;;;;;33.17;38.92;97805.19;6188602;28;20707;-88
2022/06/28 14:46:59;;;;;;;3.30;1.52;;;;;;;33.24;38.28;97800.34;6204486;28;20294;-89
2022/06/28 14:50:02;;;;;;;2.67;1.63;;;;;;;33.98;37.39;97787.22;6189332;28;20565;-88
2022/06/28 14:53:10;;;;;;;2.45;1.15;;;;;;;37.84;31.23;97785.19;6187868;28;20323;-87
2022/06/28 14:56:18;;;;;;;2.95;1.38;;;;;;;39.68;28.53;97782.63;6203839;28;20231;-88
2022/06/28 14:59:20;;;;;;;1.80;1.30;;;;;;;40.56;26.49;97775.63;6188617;28;20248;-88
2022/06/28 17:02:03;;;;;;;4.03;2.88;;;;;;;28.90;52.53;97741.00;4162579;28;22240;-89
2022/06/28 17:05:06;;;;;;;2.47;1.80;;;;;;;28.41;53.54;97746.88;6184720;28;20331;-88
2022/06/28 17:08:08;;;;;;;2.97;1.73;;;;;;;28.14;54.39;97749.19;6173866;28;20243;-88
2022/06/28 17:11:12;;;;;;;3.58;2.03;;;;;;;27.81;55.67;97736.97;6193098;28;20233;-88
2022/06/28 17:14:14;;;;;;;3.53;2.17;;;;;;;27.54;56.28;97738.38;6184100;28;20235;-89
2022/06/28 17:17:17;;;;;;;3.97;2.13;;;;;;;27.32;57.14;97746.16;6188073;28;21080;-90